weather.gov     
National Weather Service

Terminal Aerodrome Forecast
NWS Homepage
This page is being discontinued on March 12, 2014.
The same data is available at this site. Please update your bookmarks.
Thank you, and we apologize for the inconvenience.
Please send an email to SR-SRH.Webmaster@noaa.gov with any concerns.


Current Version
Previous Version:    01  02  03  04  05  06  07  08  09  10  11  12  13  14  15  16  17  18  19  20  21  22  23  
[Printable]
392
FTUS45 KBOI 161739
TAFMYL
TAF
KMYL 161739Z 1618/1718 VRB03KT P6SM FEW060 OVC100
     FM162100 20005KT P6SM SCT100 BKN200
     FM171300 VRB03KT P6SM BKN080 OVC120=


392
FTUS45 KBOI 161739
TAFMYL
TAF
KMYL 161739Z 1618/1718 VRB03KT P6SM FEW060 OVC100
     FM162100 20005KT P6SM SCT100 BKN200
     FM171300 VRB03KT P6SM BKN080 OVC120=




U.S. Dept. of Commerce
NOAA National Weather Service
1325 East West Highway
Silver Spring, MD 20910
E-mail: w-nws.webmaster@noaa.gov
Page last modified: May 16, 2007
NATIONAL WEATHER SERVICE: for Safety, for Work, for Fun - FOR LIFE